sensor_id;sensor_type;location;lat;lon;timestamp;P1;durP1;ratioP1;P2;durP2;ratioP2
37321;SDS011;23697;48.684;9.032;2023-06-24T00:01:30;4.03;;;1.55;;
37321;SDS011;23697;48.684;9.032;2023-06-24T00:03:58;2.28;;;1.60;;
37321;SDS011;23697;48.684;9.032;2023-06-24T00:06:25;1.77;;;1.42;;
37321;SDS011;23697;48.684;9.032;2023-06-24T00:08:52;1.90;;;1.42;;
37321;SDS011;23697;48.684;9.032;2023-06-24T00:11:25;2.47;;;1.40;;
37321;SDS011;23697;48.684;9.032;2023-06-24T00:13:53;2.10;;;1.55;;
37321;SDS011;23697;48.684;9.032;2023-06-24T00:16:20;2.38;;;1.58;;
37321;SDS011;23697;48.684;9.032;2023-06-24T00:18:53;2.60;;;1.80;;
37321;SDS011;23697;48.684;9.032;2023-06-24T00:21:25;2.42;;;1.60;;
37321;SDS011;23697;48.684;9.032;2023-06-24T00:23:55;2.58;;;1.67;;
37321;SDS011;23697;48.684;9.032;2023-06-24T00:26:22;1.80;;;1.50;;
37321;SDS011;23697;48.684;9.032;2023-06-24T00:28:49;2.97;;;1.85;;
37321;SDS011;23697;48.684;9.032;2023-06-24T00:31:16;2.00;;;1.52;;
37321;SDS011;23697;48.684;9.032;2023-06-24T00:33:44;1.92;;;1.42;;
37321;SDS011;23697;48.684;9.032;2023-06-24T00:36:12;2.75;;;1.60;;
37321;SDS011;23697;48.684;9.032;2023-06-24T00:38:39;2.33;;;1.60;;
37321;SDS011;23697;48.684;9.032;2023-06-24T00:41:06;3.22;;;1.80;;
37321;SDS011;23697;48.684;9.032;2023-06-24T00:43:34;2.72;;;1.90;;
37321;SDS011;23697;48.684;9.032;2023-06-24T00:46:01;2.33;;;1.58;;
37321;SDS011;23697;48.684;9.032;2023-06-24T00:48:28;1.60;;;1.40;;
37321;SDS011;23697;48.684;9.032;2023-06-24T00:50:56;3.45;;;1.98;;
37321;SDS011;23697;48.684;9.032;2023-06-24T00:53:26;2.45;;;1.58;;
37321;SDS011;23697;48.684;9.032;2023-06-24T00:55:53;5.35;;;1.90;;
37321;SDS011;23697;48.684;9.032;2023-06-24T00:58:21;3.22;;;1.98;;
37321;SDS011;23697;48.684;9.032;2023-06-24T01:00:49;3.13;;;1.85;;
37321;SDS011;23697;48.684;9.032;2023-06-24T01:03:22;2.65;;;1.73;;
37321;SDS011;23697;48.684;9.032;2023-06-24T01:05:50;2.03;;;1.65;;
37321;SDS011;23697;48.684;9.032;2023-06-24T01:08:18;3.60;;;1.85;;
37321;SDS011;23697;48.684;9.032;2023-06-24T01:10:49;3.08;;;1.70;;
37321;SDS011;23697;48.684;9.032;2023-06-24T01:13:16;1.92;;;1.40;;
37321;SDS011;23697;48.684;9.032;2023-06-24T01:15:46;3.10;;;1.80;;
37321;SDS011;23697;48.684;9.032;2023-06-24T01:18:14;1.75;;;1.48;;
37321;SDS011;23697;48.684;9.032;2023-06-24T01:20:47;2.65;;;1.80;;
37321;SDS011;23697;48.684;9.032;2023-06-24T01:23:25;2.97;;;1.80;;
37321;SDS011;23697;48.684;9.032;2023-06-24T01:26:12;2.55;;;2.00;;
37321;SDS011;23697;48.684;9.032;2023-06-24T01:28:57;2.53;;;1.67;;
37321;SDS011;23697;48.684;9.032;2023-06-24T01:31:42;3.08;;;1.60;;
37321;SDS011;23697;48.684;9.032;2023-06-24T01:34:15;2.47;;;1.65;;
37321;SDS011;23697;48.684;9.032;2023-06-24T01:36:50;2.63;;;1.60;;
37321;SDS011;23697;48.684;9.032;2023-06-24T01:39:22;1.88;;;1.42;;
37321;SDS011;23697;48.684;9.032;2023-06-24T01:41:54;3.22;;;1.73;;
37321;SDS011;23697;48.684;9.032;2023-06-24T01:44:25;2.05;;;1.60;;
37321;SDS011;23697;48.684;9.032;2023-06-24T01:46:57;1.97;;;1.50;;
37321;SDS011;23697;48.684;9.032;2023-06-24T01:49:26;3.13;;;1.67;;
37321;SDS011;23697;48.684;9.032;2023-06-24T01:51:55;2.55;;;1.83;;
37321;SDS011;23697;48.684;9.032;2023-06-24T01:54:25;2.25;;;1.42;;
37321;SDS011;23697;48.684;9.032;2023-06-24T01:56:54;2.88;;;1.48;;
37321;SDS011;23697;48.684;9.032;2023-06-24T01:59:23;2.20;;;1.70;;
37321;SDS011;23697;48.684;9.032;2023-06-24T02:01:54;1.83;;;1.48;;
37321;SDS011;23697;48.684;9.032;2023-06-24T02:04:23;2.40;;;1.88;;
37321;SDS011;23697;48.684;9.032;2023-06-24T02:06:55;2.38;;;1.60;;
37321;SDS011;23697;48.684;9.032;2023-06-24T02:09:24;2.45;;;1.73;;
37321;SDS011;23697;48.684;9.032;2023-06-24T02:11:53;2.40;;;1.60;;
37321;SDS011;23697;48.684;9.032;2023-06-24T02:14:22;1.88;;;1.63;;
37321;SDS011;23697;48.684;9.032;2023-06-24T02:16:49;1.92;;;1.35;;
37321;SDS011;23697;48.684;9.032;2023-06-24T02:19:24;4.40;;;1.75;;
37321;SDS011;23697;48.684;9.032;2023-06-24T02:21:53;1.88;;;1.65;;
37321;SDS011;23697;48.684;9.032;2023-06-24T02:24:22;1.85;;;1.30;;
37321;SDS011;23697;48.684;9.032;2023-06-24T02:26:51;2.78;;;1.50;;
37321;SDS011;23697;48.684;9.032;2023-06-24T02:29:19;2.78;;;1.77;;
37321;SDS011;23697;48.684;9.032;2023-06-24T02:31:47;3.17;;;1.77;;
37321;SDS011;23697;48.684;9.032;2023-06-24T02:34:15;2.78;;;1.92;;
37321;SDS011;23697;48.684;9.032;2023-06-24T02:36:43;1.92;;;1.58;;
37321;SDS011;23697;48.684;9.032;2023-06-24T02:39:10;3.10;;;1.90;;
37321;SDS011;23697;48.684;9.032;2023-06-24T02:41:37;1.90;;;1.60;;
37321;SDS011;23697;48.684;9.032;2023-06-24T02:44:04;2.63;;;1.50;;
37321;SDS011;23697;48.684;9.032;2023-06-24T02:46:31;2.72;;;1.65;;
37321;SDS011;23697;48.684;9.032;2023-06-24T02:49:00;2.35;;;1.50;;
37321;SDS011;23697;48.684;9.032;2023-06-24T02:51:28;2.13;;;1.55;;
37321;SDS011;23697;48.684;9.032;2023-06-24T02:53:57;3.40;;;1.98;;
37321;SDS011;23697;48.684;9.032;2023-06-24T02:56:24;2.05;;;1.33;;
37321;SDS011;23697;48.684;9.032;2023-06-24T02:58:53;2.00;;;1.58;;
37321;SDS011;23697;48.684;9.032;2023-06-24T03:01:20;2.05;;;1.75;;
37321;SDS011;23697;48.684;9.032;2023-06-24T03:03:50;2.08;;;1.83;;
37321;SDS011;23697;48.684;9.032;2023-06-24T03:06:19;2.10;;;1.48;;
37321;SDS011;23697;48.684;9.032;2023-06-24T03:08:47;2.22;;;1.70;;
37321;SDS011;23697;48.684;9.032;2023-06-24T03:11:16;3.05;;;1.83;;
37321;SDS011;23697;48.684;9.032;2023-06-24T03:13:53;2.53;;;1.77;;
37321;SDS011;23697;48.684;9.032;2023-06-24T03:16:21;1.95;;;1.48;;
37321;SDS011;23697;48.684;9.032;2023-06-24T03:18:47;2.03;;;1.50;;
37321;SDS011;23697;48.684;9.032;2023-06-24T03:21:14;2.42;;;1.83;;
37321;SDS011;23697;48.684;9.032;2023-06-24T03:23:41;2.67;;;1.80;;
37321;SDS011;23697;48.684;9.032;2023-06-24T03:26:08;2.85;;;1.98;;
37321;SDS011;23697;48.684;9.032;2023-06-24T03:28:36;1.60;;;1.45;;
37321;SDS011;23697;48.684;9.032;2023-06-24T03:31:04;2.08;;;1.70;;
37321;SDS011;23697;48.684;9.032;2023-06-24T03:33:40;2.60;;;1.83;;
37321;SDS011;23697;48.684;9.032;2023-06-24T03:36:19;3.38;;;1.90;;
37321;SDS011;23697;48.684;9.032;2023-06-24T03:38:46;2.25;;;1.40;;
37321;SDS011;23697;48.684;9.032;2023-06-24T03:41:13;2.65;;;1.65;;
37321;SDS011;23697;48.684;9.032;2023-06-24T03:43:41;2.47;;;1.65;;
37321;SDS011;23697;48.684;9.032;2023-06-24T03:46:10;1.75;;;1.50;;
37321;SDS011;23697;48.684;9.032;2023-06-24T03:48:36;2.38;;;1.38;;
37321;SDS011;23697;48.684;9.032;2023-06-24T03:51:06;1.75;;;1.42;;
37321;SDS011;23697;48.684;9.032;2023-06-24T03:53:33;2.25;;;1.77;;
37321;SDS011;23697;48.684;9.032;2023-06-24T03:56:00;2.60;;;1.85;;
37321;SDS011;23697;48.684;9.032;2023-06-24T03:58:27;2.75;;;1.88;;
37321;SDS011;23697;48.684;9.032;2023-06-24T04:00:58;2.75;;;1.90;;
37321;SDS011;23697;48.684;9.032;2023-06-24T04:03:25;1.92;;;1.60;;
37321;SDS011;23697;48.684;9.032;2023-06-24T04:05:53;2.50;;;1.60;;
37321;SDS011;23697;48.684;9.032;2023-06-24T04:08:22;2.63;;;1.90;;
37321;SDS011;23697;48.684;9.032;2023-06-24T04:10:54;3.67;;;1.80;;
37321;SDS011;23697;48.684;9.032;2023-06-24T04:13:23;3.00;;;2.08;;
37321;SDS011;23697;48.684;9.032;2023-06-24T04:15:50;2.97;;;2.08;;
37321;SDS011;23697;48.684;9.032;2023-06-24T04:18:18;2.28;;;1.75;;
37321;SDS011;23697;48.684;9.032;2023-06-24T04:20:48;2.80;;;1.90;;
37321;SDS011;23697;48.684;9.032;2023-06-24T04:23:15;5.75;;;1.73;;
37321;SDS011;23697;48.684;9.032;2023-06-24T04:25:41;2.25;;;1.60;;
37321;SDS011;23697;48.684;9.032;2023-06-24T04:28:08;1.77;;;1.40;;
37321;SDS011;23697;48.684;9.032;2023-06-24T04:30:35;3.17;;;1.60;;
37321;SDS011;23697;48.684;9.032;2023-06-24T04:33:09;2.90;;;1.95;;
37321;SDS011;23697;48.684;9.032;2023-06-24T04:35:37;2.17;;;1.55;;
37321;SDS011;23697;48.684;9.032;2023-06-24T04:38:04;2.75;;;1.80;;
37321;SDS011;23697;48.684;9.032;2023-06-24T04:40:31;3.35;;;1.85;;
37321;SDS011;23697;48.684;9.032;2023-06-24T04:42:58;2.10;;;1.67;;
37321;SDS011;23697;48.684;9.032;2023-06-24T04:45:25;2.65;;;1.70;;
37321;SDS011;23697;48.684;9.032;2023-06-24T04:47:52;2.10;;;1.75;;
37321;SDS011;23697;48.684;9.032;2023-06-24T04:50:19;3.53;;;2.20;;
37321;SDS011;23697;48.684;9.032;2023-06-24T04:52:52;2.50;;;1.58;;
37321;SDS011;23697;48.684;9.032;2023-06-24T04:55:20;7.80;;;1.83;;
37321;SDS011;23697;48.684;9.032;2023-06-24T04:57:55;2.50;;;1.92;;
37321;SDS011;23697;48.684;9.032;2023-06-24T05:00:22;2.50;;;1.65;;
37321;SDS011;23697;48.684;9.032;2023-06-24T05:02:49;3.03;;;1.83;;
37321;SDS011;23697;48.684;9.032;2023-06-24T05:05:17;2.65;;;1.98;;
37321;SDS011;23697;48.684;9.032;2023-06-24T05:07:45;1.98;;;1.63;;
37321;SDS011;23697;48.684;9.032;2023-06-24T05:10:13;4.07;;;2.28;;
37321;SDS011;23697;48.684;9.032;2023-06-24T05:12:40;2.47;;;1.80;;
37321;SDS011;23697;48.684;9.032;2023-06-24T05:15:07;2.38;;;1.80;;
37321;SDS011;23697;48.684;9.032;2023-06-24T05:17:34;2.20;;;1.80;;
37321;SDS011;23697;48.684;9.032;2023-06-24T05:20:02;3.80;;;1.90;;
37321;SDS011;23697;48.684;9.032;2023-06-24T05:22:29;2.13;;;1.60;;
37321;SDS011;23697;48.684;9.032;2023-06-24T05:24:56;2.83;;;1.73;;
37321;SDS011;23697;48.684;9.032;2023-06-24T05:27:24;2.75;;;1.95;;
37321;SDS011;23697;48.684;9.032;2023-06-24T05:29:51;2.35;;;1.90;;
37321;SDS011;23697;48.684;9.032;2023-06-24T05:32:18;2.90;;;2.08;;
37321;SDS011;23697;48.684;9.032;2023-06-24T05:34:46;2.85;;;1.95;;
37321;SDS011;23697;48.684;9.032;2023-06-24T05:37:13;3.35;;;2.30;;
37321;SDS011;23697;48.684;9.032;2023-06-24T05:39:40;3.17;;;2.10;;
37321;SDS011;23697;48.684;9.032;2023-06-24T05:42:09;3.55;;;1.90;;
37321;SDS011;23697;48.684;9.032;2023-06-24T05:44:37;3.30;;;2.20;;
37321;SDS011;23697;48.684;9.032;2023-06-24T05:47:04;2.53;;;1.70;;
37321;SDS011;23697;48.684;9.032;2023-06-24T05:52:42;2.83;;;1.90;;
37321;SDS011;23697;48.684;9.032;2023-06-24T05:55:17;2.00;;;1.70;;
37321;SDS011;23697;48.684;9.032;2023-06-24T05:57:44;2.85;;;1.95;;
37321;SDS011;23697;48.684;9.032;2023-06-24T06:00:12;2.80;;;2.10;;
37321;SDS011;23697;48.684;9.032;2023-06-24T06:02:39;1.95;;;1.52;;
37321;SDS011;23697;48.684;9.032;2023-06-24T06:05:06;1.90;;;1.65;;
37321;SDS011;23697;48.684;9.032;2023-06-24T06:07:34;2.55;;;1.98;;
37321;SDS011;23697;48.684;9.032;2023-06-24T06:10:03;3.20;;;1.98;;
37321;SDS011;23697;48.684;9.032;2023-06-24T06:12:33;3.00;;;2.05;;
37321;SDS011;23697;48.684;9.032;2023-06-24T06:15:04;3.10;;;1.85;;
37321;SDS011;23697;48.684;9.032;2023-06-24T06:17:33;1.83;;;1.60;;
37321;SDS011;23697;48.684;9.032;2023-06-24T06:20:00;3.67;;;1.98;;
37321;SDS011;23697;48.684;9.032;2023-06-24T06:22:27;3.33;;;1.88;;
37321;SDS011;23697;48.684;9.032;2023-06-24T06:25:04;2.40;;;1.70;;
37321;SDS011;23697;48.684;9.032;2023-06-24T06:27:31;2.45;;;1.75;;
37321;SDS011;23697;48.684;9.032;2023-06-24T06:29:58;6.35;;;2.25;;
37321;SDS011;23697;48.684;9.032;2023-06-24T06:32:25;3.08;;;1.73;;
37321;SDS011;23697;48.684;9.032;2023-06-24T06:34:53;3.40;;;1.60;;
37321;SDS011;23697;48.684;9.032;2023-06-24T06:37:20;2.50;;;1.63;;
37321;SDS011;23697;48.684;9.032;2023-06-24T06:39:47;4.75;;;1.80;;
37321;SDS011;23697;48.684;9.032;2023-06-24T06:42:15;2.90;;;1.80;;
37321;SDS011;23697;48.684;9.032;2023-06-24T06:44:42;2.03;;;1.55;;
37321;SDS011;23697;48.684;9.032;2023-06-24T06:47:10;1.75;;;1.48;;
37321;SDS011;23697;48.684;9.032;2023-06-24T06:49:37;2.03;;;1.58;;
37321;SDS011;23697;48.684;9.032;2023-06-24T06:52:05;2.80;;;1.80;;
37321;SDS011;23697;48.684;9.032;2023-06-24T06:54:33;1.83;;;1.40;;
37321;SDS011;23697;48.684;9.032;2023-06-24T06:57:00;2.35;;;1.58;;
37321;SDS011;23697;48.684;9.032;2023-06-24T06:59:27;1.83;;;1.65;;
37321;SDS011;23697;48.684;9.032;2023-06-24T07:01:54;2.22;;;1.75;;
37321;SDS011;23697;48.684;9.032;2023-06-24T07:04:21;2.47;;;1.55;;
37321;SDS011;23697;48.684;9.032;2023-06-24T07:06:48;2.85;;;1.77;;
37321;SDS011;23697;48.684;9.032;2023-06-24T07:09:16;2.90;;;1.73;;
37321;SDS011;23697;48.684;9.032;2023-06-24T07:11:43;2.78;;;1.70;;
37321;SDS011;23697;48.684;9.032;2023-06-24T07:14:10;2.28;;;1.70;;
37321;SDS011;23697;48.684;9.032;2023-06-24T07:16:37;1.90;;;1.50;;
37321;SDS011;23697;48.684;9.032;2023-06-24T07:19:04;2.13;;;1.65;;
37321;SDS011;23697;48.684;9.032;2023-06-24T07:21:31;2.05;;;1.38;;
37321;SDS011;23697;48.684;9.032;2023-06-24T07:23:58;2.30;;;1.60;;
37321;SDS011;23697;48.684;9.032;2023-06-24T07:26:26;1.98;;;1.50;;
37321;SDS011;23697;48.684;9.032;2023-06-24T07:28:56;2.30;;;1.60;;
37321;SDS011;23697;48.684;9.032;2023-06-24T07:31:24;1.77;;;1.42;;
37321;SDS011;23697;48.684;9.032;2023-06-24T07:33:51;1.52;;;1.35;;
37321;SDS011;23697;48.684;9.032;2023-06-24T07:36:18;1.73;;;1.50;;
37321;SDS011;23697;48.684;9.032;2023-06-24T07:38:45;2.88;;;1.52;;
37321;SDS011;23697;48.684;9.032;2023-06-24T07:41:12;2.05;;;1.60;;
37321;SDS011;23697;48.684;9.032;2023-06-24T07:43:40;3.17;;;1.63;;
37321;SDS011;23697;48.684;9.032;2023-06-24T07:46:07;2.88;;;1.70;;
37321;SDS011;23697;48.684;9.032;2023-06-24T07:48:34;2.67;;;1.63;;
37321;SDS011;23697;48.684;9.032;2023-06-24T07:51:01;1.90;;;1.52;;
37321;SDS011;23697;48.684;9.032;2023-06-24T07:53:28;2.92;;;1.60;;
37321;SDS011;23697;48.684;9.032;2023-06-24T07:55:54;1.95;;;1.50;;
37321;SDS011;23697;48.684;9.032;2023-06-24T07:58:21;2.70;;;1.58;;
37321;SDS011;23697;48.684;9.032;2023-06-24T08:00:50;3.25;;;1.58;;
37321;SDS011;23697;48.684;9.032;2023-06-24T08:03:17;3.13;;;1.42;;
37321;SDS011;23697;48.684;9.032;2023-06-24T08:05:44;1.58;;;1.30;;
37321;SDS011;23697;48.684;9.032;2023-06-24T08:08:11;1.45;;;1.20;;
37321;SDS011;23697;48.684;9.032;2023-06-24T08:10:41;2.47;;;1.70;;
37321;SDS011;23697;48.684;9.032;2023-06-24T08:13:11;2.10;;;1.48;;
37321;SDS011;23697;48.684;9.032;2023-06-24T08:15:38;1.98;;;1.50;;
37321;SDS011;23697;48.684;9.032;2023-06-24T08:18:08;1.83;;;1.45;;
37321;SDS011;23697;48.684;9.032;2023-06-24T08:20:35;2.17;;;1.60;;
37321;SDS011;23697;48.684;9.032;2023-06-24T08:23:02;1.85;;;1.40;;
37321;SDS011;23697;48.684;9.032;2023-06-24T08:25:29;1.60;;;1.30;;
37321;SDS011;23697;48.684;9.032;2023-06-24T08:27:59;2.03;;;1.52;;
37321;SDS011;23697;48.684;9.032;2023-06-24T08:33:30;2.33;;;1.50;;
37321;SDS011;23697;48.684;9.032;2023-06-24T08:36:03;1.85;;;1.40;;
37321;SDS011;23697;48.684;9.032;2023-06-24T08:38:30;1.73;;;1.38;;
37321;SDS011;23697;48.684;9.032;2023-06-24T08:40:57;2.20;;;1.50;;
37321;SDS011;23697;48.684;9.032;2023-06-24T08:43:28;1.58;;;1.40;;
37321;SDS011;23697;48.684;9.032;2023-06-24T08:49:21;2.38;;;1.25;;
37321;SDS011;23697;48.684;9.032;2023-06-24T08:52:02;1.85;;;1.30;;
37321;SDS011;23697;48.684;9.032;2023-06-24T08:54:34;2.13;;;1.20;;
37321;SDS011;23697;48.684;9.032;2023-06-24T08:57:04;1.15;;;1.05;;
37321;SDS011;23697;48.684;9.032;2023-06-24T08:59:41;1.42;;;1.23;;
37321;SDS011;23697;48.684;9.032;2023-06-24T09:02:10;2.10;;;1.25;;
37321;SDS011;23697;48.684;9.032;2023-06-24T09:04:40;1.88;;;1.38;;
37321;SDS011;23697;48.684;9.032;2023-06-24T09:07:10;1.63;;;1.38;;
37321;SDS011;23697;48.684;9.032;2023-06-24T09:09:41;1.40;;;1.30;;
37321;SDS011;23697;48.684;9.032;2023-06-24T09:12:10;2.47;;;1.40;;
37321;SDS011;23697;48.684;9.032;2023-06-24T09:14:38;1.55;;;1.20;;
37321;SDS011;23697;48.684;9.032;2023-06-24T09:17:06;1.30;;;1.20;;
37321;SDS011;23697;48.684;9.032;2023-06-24T09:19:34;2.75;;;1.42;;
37321;SDS011;23697;48.684;9.032;2023-06-24T09:22:03;1.90;;;1.20;;
37321;SDS011;23697;48.684;9.032;2023-06-24T09:24:32;2.15;;;1.42;;
37321;SDS011;23697;48.684;9.032;2023-06-24T09:26:59;4.22;;;1.30;;
37321;SDS011;23697;48.684;9.032;2023-06-24T09:29:26;1.73;;;1.35;;
37321;SDS011;23697;48.684;9.032;2023-06-24T09:34:25;2.40;;;1.60;;
37321;SDS011;23697;48.684;9.032;2023-06-24T09:39:27;1.60;;;1.17;;
37321;SDS011;23697;48.684;9.032;2023-06-24T09:42:07;1.08;;;0.95;;
37321;SDS011;23697;48.684;9.032;2023-06-24T09:44:55;2.10;;;1.30;;
37321;SDS011;23697;48.684;9.032;2023-06-24T09:47:22;1.42;;;1.20;;
37321;SDS011;23697;48.684;9.032;2023-06-24T09:49:50;1.58;;;1.20;;
37321;SDS011;23697;48.684;9.032;2023-06-24T09:55:16;1.75;;;1.40;;
37321;SDS011;23697;48.684;9.032;2023-06-24T09:57:45;1.20;;;1.10;;
37321;SDS011;23697;48.684;9.032;2023-06-24T10:00:13;1.60;;;1.20;;
37321;SDS011;23697;48.684;9.032;2023-06-24T10:02:41;1.30;;;1.20;;
37321;SDS011;23697;48.684;9.032;2023-06-24T10:05:09;1.35;;;1.23;;
37321;SDS011;23697;48.684;9.032;2023-06-24T10:07:36;0.85;;;0.85;;
37321;SDS011;23697;48.684;9.032;2023-06-24T10:10:05;1.98;;;1.25;;
37321;SDS011;23697;48.684;9.032;2023-06-24T10:12:35;2.00;;;1.40;;
37321;SDS011;23697;48.684;9.032;2023-06-24T10:15:02;1.20;;;1.05;;
37321;SDS011;23697;48.684;9.032;2023-06-24T10:17:31;1.55;;;1.20;;
37321;SDS011;23697;48.684;9.032;2023-06-24T10:19:58;1.48;;;1.35;;
37321;SDS011;23697;48.684;9.032;2023-06-24T10:22:29;1.20;;;1.10;;
37321;SDS011;23697;48.684;9.032;2023-06-24T10:24:58;1.63;;;1.20;;
37321;SDS011;23697;48.684;9.032;2023-06-24T10:27:26;1.70;;;1.30;;
37321;SDS011;23697;48.684;9.032;2023-06-24T10:30:02;1.65;;;1.23;;
37321;SDS011;23697;48.684;9.032;2023-06-24T10:32:39;1.38;;;1.23;;
37321;SDS011;23697;48.684;9.032;2023-06-24T10:35:11;2.42;;;1.67;;
37321;SDS011;23697;48.684;9.032;2023-06-24T10:37:53;1.33;;;1.23;;
37321;SDS011;23697;48.684;9.032;2023-06-24T10:40:34;1.85;;;1.27;;
37321;SDS011;23697;48.684;9.032;2023-06-24T10:43:03;1.75;;;1.25;;
37321;SDS011;23697;48.684;9.032;2023-06-24T10:45:51;1.45;;;1.20;;
37321;SDS011;23697;48.684;9.032;2023-06-24T10:48:18;1.30;;;1.20;;
37321;SDS011;23697;48.684;9.032;2023-06-24T10:50:45;1.60;;;1.20;;
37321;SDS011;23697;48.684;9.032;2023-06-24T10:53:13;1.60;;;1.27;;
37321;SDS011;23697;48.684;9.032;2023-06-24T10:55:40;2.00;;;1.23;;
37321;SDS011;23697;48.684;9.032;2023-06-24T10:58:09;1.88;;;1.10;;
37321;SDS011;23697;48.684;9.032;2023-06-24T11:03:40;1.33;;;1.08;;
37321;SDS011;23697;48.684;9.032;2023-06-24T11:06:07;1.92;;;1.33;;
37321;SDS011;23697;48.684;9.032;2023-06-24T11:08:42;1.40;;;1.23;;
37321;SDS011;23697;48.684;9.032;2023-06-24T11:11:09;2.08;;;1.20;;
37321;SDS011;23697;48.684;9.032;2023-06-24T11:13:47;1.80;;;1.40;;
37321;SDS011;23697;48.684;9.032;2023-06-24T11:16:19;1.42;;;1.20;;
37321;SDS011;23697;48.684;9.032;2023-06-24T11:18:47;1.23;;;1.10;;
37321;SDS011;23697;48.684;9.032;2023-06-24T11:21:14;1.65;;;1.30;;
37321;SDS011;23697;48.684;9.032;2023-06-24T11:23:41;1.33;;;1.15;;
37321;SDS011;23697;48.684;9.032;2023-06-24T11:26:08;1.60;;;1.20;;
37321;SDS011;23697;48.684;9.032;2023-06-24T11:28:34;1.60;;;1.40;;
37321;SDS011;23697;48.684;9.032;2023-06-24T11:31:06;1.63;;;1.27;;
37321;SDS011;23697;48.684;9.032;2023-06-24T11:33:34;1.13;;;1.02;;
37321;SDS011;23697;48.684;9.032;2023-06-24T11:36:01;1.38;;;1.27;;
37321;SDS011;23697;48.684;9.032;2023-06-24T11:38:35;1.17;;;1.02;;
37321;SDS011;23697;48.684;9.032;2023-06-24T11:41:02;1.58;;;1.30;;
37321;SDS011;23697;48.684;9.032;2023-06-24T11:43:29;1.15;;;1.05;;
37321;SDS011;23697;48.684;9.032;2023-06-24T11:45:56;1.30;;;1.20;;
37321;SDS011;23697;48.684;9.032;2023-06-24T11:48:26;2.00;;;1.48;;
37321;SDS011;23697;48.684;9.032;2023-06-24T11:50:55;1.10;;;1.00;;
37321;SDS011;23697;48.684;9.032;2023-06-24T11:53:29;1.25;;;1.05;;
37321;SDS011;23697;48.684;9.032;2023-06-24T11:55:57;1.70;;;0.95;;
37321;SDS011;23697;48.684;9.032;2023-06-24T11:58:23;1.80;;;1.13;;
37321;SDS011;23697;48.684;9.032;2023-06-24T12:00:50;1.83;;;1.30;;
37321;SDS011;23697;48.684;9.032;2023-06-24T12:03:22;1.10;;;1.05;;
37321;SDS011;23697;48.684;9.032;2023-06-24T12:05:50;1.55;;;1.20;;
37321;SDS011;23697;48.684;9.032;2023-06-24T12:08:18;1.08;;;0.98;;
37321;SDS011;23697;48.684;9.032;2023-06-24T12:10:45;1.30;;;1.20;;
37321;SDS011;23697;48.684;9.032;2023-06-24T12:13:12;2.17;;;1.20;;
37321;SDS011;23697;48.684;9.032;2023-06-24T12:15:39;2.35;;;1.20;;
37321;SDS011;23697;48.684;9.032;2023-06-24T12:18:06;1.60;;;1.30;;
37321;SDS011;23697;48.684;9.032;2023-06-24T12:20:34;1.20;;;0.95;;
37321;SDS011;23697;48.684;9.032;2023-06-24T12:23:01;1.20;;;1.10;;
37321;SDS011;23697;48.684;9.032;2023-06-24T12:25:30;1.75;;;1.30;;
37321;SDS011;23697;48.684;9.032;2023-06-24T12:27:57;1.33;;;1.23;;
37321;SDS011;23697;48.684;9.032;2023-06-24T12:30:27;1.23;;;1.13;;
37321;SDS011;23697;48.684;9.032;2023-06-24T12:32:55;1.80;;;1.35;;
37321;SDS011;23697;48.684;9.032;2023-06-24T12:35:22;1.05;;;1.00;;
37321;SDS011;23697;48.684;9.032;2023-06-24T12:37:50;2.05;;;1.30;;
37321;SDS011;23697;48.684;9.032;2023-06-24T12:40:17;2.03;;;1.33;;
37321;SDS011;23697;48.684;9.032;2023-06-24T12:42:46;1.70;;;1.38;;
37321;SDS011;23697;48.684;9.032;2023-06-24T12:45:13;1.63;;;1.23;;
37321;SDS011;23697;48.684;9.032;2023-06-24T12:47:40;1.30;;;1.10;;
37321;SDS011;23697;48.684;9.032;2023-06-24T12:50:07;1.70;;;1.25;;
37321;SDS011;23697;48.684;9.032;2023-06-24T12:52:35;1.23;;;1.13;;
37321;SDS011;23697;48.684;9.032;2023-06-24T12:55:02;1.33;;;1.23;;
37321;SDS011;23697;48.684;9.032;2023-06-24T12:57:30;1.55;;;1.30;;
37321;SDS011;23697;48.684;9.032;2023-06-24T12:59:58;2.55;;;1.15;;
37321;SDS011;23697;48.684;9.032;2023-06-24T13:02:25;1.27;;;1.15;;
37321;SDS011;23697;48.684;9.032;2023-06-24T13:04:52;1.42;;;1.30;;
37321;SDS011;23697;48.684;9.032;2023-06-24T13:07:18;1.42;;;1.00;;
37321;SDS011;23697;48.684;9.032;2023-06-24T13:09:45;1.58;;;1.30;;
37321;SDS011;23697;48.684;9.032;2023-06-24T13:12:12;1.23;;;1.13;;
37321;SDS011;23697;48.684;9.032;2023-06-24T13:14:39;1.95;;;1.30;;
37321;SDS011;23697;48.684;9.032;2023-06-24T13:17:07;2.03;;;1.30;;
37321;SDS011;23697;48.684;9.032;2023-06-24T13:19:34;1.17;;;1.08;;
37321;SDS011;23697;48.684;9.032;2023-06-24T13:22:01;2.28;;;1.30;;
37321;SDS011;23697;48.684;9.032;2023-06-24T13:24:28;1.20;;;1.10;;
37321;SDS011;23697;48.684;9.032;2023-06-24T13:26:55;1.60;;;1.20;;
37321;SDS011;23697;48.684;9.032;2023-06-24T13:29:22;1.25;;;1.15;;
37321;SDS011;23697;48.684;9.032;2023-06-24T13:34:20;1.42;;;1.17;;
37321;SDS011;23697;48.684;9.032;2023-06-24T13:36:47;1.00;;;1.00;;
37321;SDS011;23697;48.684;9.032;2023-06-24T13:39:14;2.00;;;1.45;;
37321;SDS011;23697;48.684;9.032;2023-06-24T13:41:42;1.27;;;1.15;;
37321;SDS011;23697;48.684;9.032;2023-06-24T13:44:10;2.22;;;1.50;;
37321;SDS011;23697;48.684;9.032;2023-06-24T13:46:37;1.88;;;1.40;;
37321;SDS011;23697;48.684;9.032;2023-06-24T13:49:04;2.30;;;1.33;;
37321;SDS011;23697;48.684;9.032;2023-06-24T13:51:32;2.65;;;1.60;;
37321;SDS011;23697;48.684;9.032;2023-06-24T13:53:59;1.35;;;1.05;;
37321;SDS011;23697;48.684;9.032;2023-06-24T13:56:26;1.58;;;1.17;;
37321;SDS011;23697;48.684;9.032;2023-06-24T13:58:54;1.73;;;1.17;;
37321;SDS011;23697;48.684;9.032;2023-06-24T14:01:21;1.50;;;1.20;;
37321;SDS011;23697;48.684;9.032;2023-06-24T14:03:51;1.30;;;1.20;;
37321;SDS011;23697;48.684;9.032;2023-06-24T14:06:21;1.63;;;1.33;;
37321;SDS011;23697;48.684;9.032;2023-06-24T14:08:51;1.35;;;1.25;;
37321;SDS011;23697;48.684;9.032;2023-06-24T14:11:18;1.23;;;1.13;;
37321;SDS011;23697;48.684;9.032;2023-06-24T14:13:45;1.65;;;1.30;;
37321;SDS011;23697;48.684;9.032;2023-06-24T14:16:12;1.60;;;1.30;;
37321;SDS011;23697;48.684;9.032;2023-06-24T14:18:39;1.65;;;1.20;;
37321;SDS011;23697;48.684;9.032;2023-06-24T14:21:07;1.65;;;1.20;;
37321;SDS011;23697;48.684;9.032;2023-06-24T14:23:34;1.50;;;1.25;;
37321;SDS011;23697;48.684;9.032;2023-06-24T14:26:03;1.10;;;0.98;;
37321;SDS011;23697;48.684;9.032;2023-06-24T14:28:30;1.10;;;1.00;;
37321;SDS011;23697;48.684;9.032;2023-06-24T14:30:56;1.92;;;1.38;;
37321;SDS011;23697;48.684;9.032;2023-06-24T14:33:23;1.60;;;1.17;;
37321;SDS011;23697;48.684;9.032;2023-06-24T14:35:50;1.15;;;1.05;;
37321;SDS011;23697;48.684;9.032;2023-06-24T14:38:17;2.88;;;1.55;;
37321;SDS011;23697;48.684;9.032;2023-06-24T14:40:44;1.33;;;1.20;;
37321;SDS011;23697;48.684;9.032;2023-06-24T14:43:13;1.30;;;1.20;;
37321;SDS011;23697;48.684;9.032;2023-06-24T14:45:39;1.50;;;1.20;;
37321;SDS011;23697;48.684;9.032;2023-06-24T14:48:06;1.30;;;1.20;;
37321;SDS011;23697;48.684;9.032;2023-06-24T14:50:33;1.50;;;1.30;;
37321;SDS011;23697;48.684;9.032;2023-06-24T14:53:00;1.33;;;1.10;;
37321;SDS011;23697;48.684;9.032;2023-06-24T14:55:28;1.23;;;1.13;;
37321;SDS011;23697;48.684;9.032;2023-06-24T14:57:55;1.30;;;1.20;;
37321;SDS011;23697;48.684;9.032;2023-06-24T15:00:23;1.80;;;1.23;;
37321;SDS011;23697;48.684;9.032;2023-06-24T15:02:50;1.92;;;1.40;;
37321;SDS011;23697;48.684;9.032;2023-06-24T15:05:17;1.27;;;1.17;;
37321;SDS011;23697;48.684;9.032;2023-06-24T15:07:44;2.00;;;1.45;;
37321;SDS011;23697;48.684;9.032;2023-06-24T15:10:11;1.77;;;1.20;;
37321;SDS011;23697;48.684;9.032;2023-06-24T15:12:38;2.10;;;1.40;;
37321;SDS011;23697;48.684;9.032;2023-06-24T15:15:05;1.10;;;1.00;;
37321;SDS011;23697;48.684;9.032;2023-06-24T15:17:34;1.50;;;1.10;;
37321;SDS011;23697;48.684;9.032;2023-06-24T15:20:05;1.85;;;1.30;;